createdAt,value
2022-12-18T00:01:08.777Z,3.53
2022-12-18T00:03:36.679Z,3.52
2022-12-18T00:06:03.595Z,3.50
2022-12-18T00:08:30.179Z,3.51
2022-12-18T00:11:03.913Z,3.49
2022-12-18T00:13:34.169Z,3.46
2022-12-18T00:16:06.357Z,3.44
2022-12-18T00:18:33.519Z,3.45
2022-12-18T00:21:02.504Z,3.43
2022-12-18T00:23:30.600Z,3.43
2022-12-18T00:26:05.264Z,3.41
2022-12-18T00:28:31.995Z,3.41
2022-12-18T00:31:04.384Z,3.39
2022-12-18T00:33:31.615Z,3.38
2022-12-18T00:36:04.576Z,3.39
2022-12-18T00:38:32.974Z,3.38
2022-12-18T00:40:59.699Z,3.35
2022-12-18T00:43:27.447Z,3.32
2022-12-18T00:45:54.502Z,3.33
2022-12-18T00:48:21.306Z,3.34
2022-12-18T00:50:50.262Z,3.32
2022-12-18T00:53:17.319Z,3.33
2022-12-18T00:55:44.605Z,3.29
2022-12-18T00:58:12.708Z,3.32
2022-12-18T01:00:39.643Z,3.32
2022-12-18T01:03:06.932Z,3.33
2022-12-18T01:05:33.851Z,3.30
2022-12-18T01:08:00.980Z,3.31
2022-12-18T01:10:27.608Z,3.32
2022-12-18T01:12:57.897Z,3.31
2022-12-18T01:15:24.565Z,3.29
2022-12-18T01:17:54.233Z,3.31
2022-12-18T01:20:21.422Z,3.31
2022-12-18T01:22:47.979Z,3.31
2022-12-18T01:25:14.750Z,3.30
2022-12-18T01:27:41.364Z,3.29
2022-12-18T01:30:08.430Z,3.29
2022-12-18T01:32:35.110Z,3.28
2022-12-18T01:35:02.565Z,3.29
2022-12-18T01:37:29.183Z,3.27
2022-12-18T01:39:56.501Z,3.27
2022-12-18T01:42:23.112Z,3.26
2022-12-18T01:45:06.894Z,3.26
2022-12-18T01:47:36.499Z,3.26
2022-12-18T01:50:08.699Z,3.25
2022-12-18T01:52:41.884Z,3.25
2022-12-18T01:55:10.354Z,3.24
2022-12-18T01:57:38.975Z,3.22
2022-12-18T02:00:18.613Z,3.24
2022-12-18T02:02:47.329Z,3.22
2022-12-18T02:05:18.802Z,3.23
2022-12-18T02:08:15.235Z,3.23
2022-12-18T02:11:05.624Z,3.22
2022-12-18T02:13:35.931Z,3.20
2022-12-18T02:16:23.015Z,3.20
2022-12-18T02:18:55.429Z,3.20
2022-12-18T02:21:25.494Z,3.19
2022-12-18T02:24:11.094Z,3.17
2022-12-18T02:26:51.294Z,3.17
2022-12-18T02:29:32.571Z,3.15
2022-12-18T02:32:05.599Z,3.17
2022-12-18T02:34:37.122Z,3.15
2022-12-18T02:37:12.554Z,3.15
2022-12-18T02:39:42.843Z,3.15
2022-12-18T02:42:12.820Z,3.12
2022-12-18T02:44:49.264Z,3.10
2022-12-18T02:47:23.450Z,3.09
2022-12-18T02:49:59.265Z,3.08
2022-12-18T02:52:35.990Z,3.11
2022-12-18T02:55:23.291Z,3.11
2022-12-18T02:58:07.995Z,3.10
2022-12-18T03:00:42.540Z,3.09
2022-12-18T03:03:17.733Z,3.08
2022-12-18T03:06:05.851Z,3.05
2022-12-18T03:08:40.241Z,3.05
2022-12-18T03:11:12.634Z,3.05
2022-12-18T03:13:42.922Z,3.07
2022-12-18T03:16:18.878Z,3.05
2022-12-18T03:19:07.766Z,3.07
2022-12-18T03:22:03.189Z,3.04
2022-12-18T03:24:40.546Z,3.04
2022-12-18T03:27:14.884Z,2.99
2022-12-18T03:29:50.029Z,3.01
2022-12-18T03:32:27.250Z,2.99
2022-12-18T03:34:59.470Z,2.97
2022-12-18T03:37:34.068Z,2.98
2022-12-18T03:40:00.862Z,2.96
2022-12-18T03:42:46.669Z,2.98
2022-12-18T03:45:20.128Z,2.95
2022-12-18T03:48:30.088Z,2.98
2022-12-18T03:51:07.018Z,2.97
2022-12-18T03:53:58.787Z,2.97
2022-12-18T03:56:34.474Z,2.95
2022-12-18T03:59:04.039Z,2.91
2022-12-18T04:01:40.061Z,2.90
2022-12-18T04:04:09.609Z,2.85
2022-12-18T04:06:39.708Z,2.92
2022-12-18T04:09:08.701Z,2.93
2022-12-18T04:11:41.769Z,2.91
2022-12-18T04:14:09.914Z,2.88
2022-12-18T04:16:38.760Z,2.88
2022-12-18T04:19:09.284Z,2.87
2022-12-18T04:21:40.129Z,2.86
2022-12-18T04:24:07.705Z,2.85
2022-12-18T04:26:36.495Z,2.82
2022-12-18T04:29:16.361Z,2.83
2022-12-18T04:31:43.066Z,2.82
2022-12-18T04:34:10.184Z,2.81
2022-12-18T04:36:42.881Z,2.75
2022-12-18T04:39:09.732Z,2.77
2022-12-18T04:41:36.475Z,2.76
2022-12-18T04:44:04.421Z,2.76
2022-12-18T04:46:31.195Z,2.72
2022-12-18T04:48:57.850Z,2.72
2022-12-18T04:51:26.627Z,2.72
2022-12-18T04:53:54.204Z,2.72
2022-12-18T04:56:20.917Z,2.67
2022-12-18T04:58:47.683Z,2.67
2022-12-18T05:01:16.927Z,2.66
2022-12-18T05:03:44.392Z,2.63
2022-12-18T05:06:11.674Z,2.62
2022-12-18T05:08:38.407Z,2.57
2022-12-18T05:11:10.672Z,2.56
2022-12-18T05:13:39.220Z,2.52
2022-12-18T05:16:07.373Z,2.54
2022-12-18T05:18:34.834Z,2.52
2022-12-18T05:21:01.927Z,2.51
2022-12-18T05:23:29.261Z,2.47
2022-12-18T05:26:04.652Z,2.46
2022-12-18T05:28:32.994Z,2.43
2022-12-18T05:31:01.767Z,2.43
2022-12-18T05:33:32.040Z,2.42
2022-12-18T05:36:03.472Z,2.41
2022-12-18T05:38:32.019Z,2.40
2022-12-18T05:40:59.116Z,2.36
2022-12-18T05:43:26.830Z,2.36
2022-12-18T05:45:54.557Z,2.34
2022-12-18T05:48:22.234Z,2.29
2022-12-18T05:50:50.690Z,2.32
2022-12-18T05:53:20.372Z,2.29
2022-12-18T05:55:47.766Z,2.24
2022-12-18T05:58:15.527Z,2.24
2022-12-18T06:00:45.633Z,2.25
2022-12-18T06:03:13.614Z,2.23
2022-12-18T06:05:43.222Z,2.19
2022-12-18T06:08:10.522Z,2.18
2022-12-18T06:10:37.943Z,2.19
2022-12-18T06:13:04.963Z,2.17
2022-12-18T06:15:31.648Z,2.17
2022-12-18T06:17:58.862Z,2.13
2022-12-18T06:20:30.408Z,2.14
2022-12-18T06:22:59.832Z,2.10
2022-12-18T06:25:26.440Z,2.09
2022-12-18T06:27:53.126Z,2.07
2022-12-18T06:30:20.245Z,2.07
2022-12-18T06:32:50.506Z,2.05
2022-12-18T06:35:19.728Z,2.05
2022-12-18T06:37:47.987Z,2.03
2022-12-18T06:40:14.586Z,2.03
2022-12-18T06:42:41.235Z,2.02
2022-12-18T06:45:08.766Z,2.00
2022-12-18T06:47:35.491Z,1.96
2022-12-18T06:50:02.189Z,1.97
2022-12-18T06:52:28.838Z,1.96
2022-12-18T06:54:55.581Z,1.97
2022-12-18T06:57:22.313Z,1.95
2022-12-18T06:59:48.966Z,1.94
2022-12-18T07:02:16.043Z,1.93
2022-12-18T07:04:42.851Z,1.92
2022-12-18T07:07:09.433Z,1.92
2022-12-18T07:09:36.229Z,1.89
2022-12-18T07:12:02.928Z,1.92
2022-12-18T07:14:29.686Z,1.89
2022-12-18T07:16:56.750Z,1.85
2022-12-18T07:19:26.653Z,1.88
2022-12-18T07:21:53.392Z,1.86
2022-12-18T07:24:20.148Z,1.84
2022-12-18T07:26:47.804Z,1.86
2022-12-18T07:29:14.379Z,1.86
2022-12-18T07:31:41.108Z,1.83
2022-12-18T07:34:12.775Z,1.83
2022-12-18T07:36:39.994Z,1.83
2022-12-18T07:39:06.821Z,1.81
2022-12-18T07:41:33.462Z,1.80
2022-12-18T07:44:11.614Z,1.79
2022-12-18T07:46:38.517Z,1.80
2022-12-18T07:49:05.409Z,1.80
2022-12-18T07:51:32.164Z,1.80
2022-12-18T07:53:58.978Z,1.80
2022-12-18T07:56:27.694Z,1.80
2022-12-18T07:58:55.704Z,1.83
2022-12-18T08:01:22.524Z,1.83
2022-12-18T08:03:49.918Z,1.84
2022-12-18T08:06:19.131Z,1.86
2022-12-18T08:08:45.816Z,1.85
2022-12-18T08:11:12.517Z,1.88
2022-12-18T08:13:39.577Z,1.90
2022-12-18T08:16:08.345Z,1.91
2022-12-18T08:18:37.528Z,1.93
2022-12-18T08:21:25.019Z,1.92
2022-12-18T08:23:53.407Z,1.93
2022-12-18T08:26:20.853Z,1.96
2022-12-18T08:28:48.489Z,1.97
2022-12-18T08:31:16.173Z,2.02
2022-12-18T08:33:43.723Z,2.06
2022-12-18T08:36:11.676Z,2.09
2022-12-18T08:38:38.880Z,2.15
2022-12-18T08:41:11.938Z,2.21
2022-12-18T08:43:57.615Z,2.28
2022-12-18T08:46:26.291Z,2.39
2022-12-18T08:48:54.424Z,2.45
2022-12-18T08:51:21.760Z,2.64
2022-12-18T08:53:48.727Z,2.89
2022-12-18T08:56:16.683Z,3.04
2022-12-18T08:58:44.449Z,3.03
2022-12-18T09:01:13.263Z,2.94
2022-12-18T09:03:41.431Z,2.85
2022-12-18T09:06:09.504Z,2.80
2022-12-18T09:08:38.033Z,2.78
2022-12-18T09:11:05.426Z,2.78
2022-12-18T09:13:32.305Z,2.77
2022-12-18T09:15:59.582Z,2.75
2022-12-18T09:18:26.367Z,2.77
2022-12-18T09:20:54.217Z,2.79
2022-12-18T09:23:22.580Z,2.78
2022-12-18T09:25:49.509Z,2.81
2022-12-18T09:28:19.290Z,2.84
2022-12-18T09:30:51.186Z,2.86
2022-12-18T09:33:18.688Z,2.89
2022-12-18T09:35:47.463Z,2.92
2022-12-18T09:38:16.889Z,2.90
2022-12-18T09:40:57.003Z,2.93
2022-12-18T09:43:35.032Z,2.94
2022-12-18T09:46:08.042Z,2.94
2022-12-18T09:48:43.228Z,3.00
2022-12-18T09:51:19.527Z,2.97
2022-12-18T09:53:52.863Z,3.01
2022-12-18T09:56:23.782Z,3.05
2022-12-18T09:58:54.880Z,3.04
2022-12-18T10:01:25.326Z,3.06
2022-12-18T10:03:54.513Z,3.05
2022-12-18T10:06:21.267Z,3.09
2022-12-18T10:09:11.538Z,3.09
2022-12-18T10:12:13.783Z,3.12
2022-12-18T10:15:03.397Z,3.13
2022-12-18T10:17:49.988Z,3.15
2022-12-18T10:20:45.279Z,3.18
2022-12-18T10:23:15.027Z,3.18
2022-12-18T10:25:44.319Z,3.26
2022-12-18T10:28:15.016Z,3.28
2022-12-18T10:30:43.449Z,3.33
2022-12-18T10:33:21.988Z,3.32
2022-12-18T10:35:54.018Z,3.33
2022-12-18T10:38:30.701Z,3.32
2022-12-18T10:41:06.146Z,3.33
2022-12-18T10:43:38.724Z,3.34
2022-12-18T10:46:11.250Z,3.37
2022-12-18T10:48:42.235Z,3.39
2022-12-18T10:51:12.161Z,3.42
2022-12-18T10:53:43.145Z,3.43
2022-12-18T10:56:10.373Z,3.46
2022-12-18T10:58:39.707Z,3.46
2022-12-18T11:01:14.366Z,3.49
2022-12-18T11:03:47.682Z,3.51
2022-12-18T11:06:20.249Z,3.54
2022-12-18T11:09:19.811Z,3.58
2022-12-18T11:11:53.370Z,3.61
2022-12-18T11:14:35.196Z,3.65
2022-12-18T11:17:24.971Z,3.66
2022-12-18T11:19:57.764Z,3.70
2022-12-18T11:22:28.852Z,3.72
2022-12-18T11:25:33.383Z,3.75
2022-12-18T11:28:03.438Z,3.78
2022-12-18T11:30:36.238Z,3.79
2022-12-18T11:33:22.975Z,3.82
2022-12-18T11:35:54.623Z,3.82
2022-12-18T11:38:21.472Z,3.86
2022-12-18T11:40:57.472Z,3.87
2022-12-18T11:43:38.090Z,3.84
2022-12-18T11:46:19.373Z,3.82
2022-12-18T11:48:59.281Z,3.85
2022-12-18T11:51:49.565Z,3.85
2022-12-18T11:54:17.075Z,3.86
2022-12-18T11:57:15.967Z,3.88
2022-12-18T12:00:02.039Z,3.90
2022-12-18T12:03:04.068Z,3.94
2022-12-18T12:05:49.172Z,3.97
2022-12-18T12:08:18.846Z,3.98
2022-12-18T12:10:51.474Z,4.02
2022-12-18T12:13:36.710Z,4.06
2022-12-18T12:16:15.698Z,4.12
2022-12-18T12:19:11.539Z,4.15
2022-12-18T12:21:54.728Z,4.18
2022-12-18T12:24:27.056Z,4.19
2022-12-18T12:27:00.770Z,4.17
2022-12-18T12:29:52.762Z,4.23
2022-12-18T12:32:26.367Z,4.22
2022-12-18T12:35:20.908Z,4.26
2022-12-18T12:38:16.990Z,4.28
2022-12-18T12:40:58.582Z,4.24
2022-12-18T12:43:46.116Z,4.24
2022-12-18T12:46:33.634Z,4.25
2022-12-18T12:49:04.947Z,4.26
2022-12-18T12:51:41.828Z,4.32
2022-12-18T12:54:18.496Z,4.30
2022-12-18T12:57:06.975Z,4.29
2022-12-18T12:59:41.129Z,4.28
2022-12-18T13:02:45.475Z,4.24
2022-12-18T13:05:18.947Z,4.24
2022-12-18T13:07:51.316Z,4.23
2022-12-18T13:10:19.043Z,4.22
2022-12-18T13:12:56.735Z,4.19
2022-12-18T13:15:33.564Z,4.18
2022-12-18T13:18:26.727Z,4.19
2022-12-18T13:21:02.975Z,4.15
2022-12-18T13:23:40.796Z,4.14
2022-12-18T13:26:08.653Z,4.14
2022-12-18T13:28:47.085Z,4.16
2022-12-18T13:31:32.915Z,4.17
2022-12-18T13:34:27.853Z,4.16
2022-12-18T13:36:58.310Z,4.17
2022-12-18T13:39:35.260Z,4.16
2022-12-18T13:42:05.873Z,4.19
2022-12-18T13:47:38.490Z,4.20
2022-12-18T13:50:23.725Z,4.16
2022-12-18T13:52:52.111Z,4.20
2022-12-18T13:55:21.745Z,4.18
2022-12-18T13:57:48.447Z,4.21
2022-12-18T14:00:29.670Z,4.20
2022-12-18T14:02:58.483Z,4.22
2022-12-18T14:05:30.782Z,4.22
2022-12-18T14:08:07.762Z,4.22
2022-12-18T14:10:48.586Z,4.22
2022-12-18T14:13:28.982Z,4.21
2022-12-18T14:15:57.389Z,4.21
2022-12-18T14:18:32.110Z,4.22
2022-12-18T14:21:01.243Z,4.22
2022-12-18T14:23:41.250Z,4.22
2022-12-18T14:26:26.380Z,4.20
2022-12-18T14:28:54.829Z,4.20
2022-12-18T14:31:24.424Z,4.18
2022-12-18T14:33:52.047Z,4.21
2022-12-18T14:36:21.892Z,4.18
2022-12-18T14:38:56.704Z,4.20
2022-12-18T14:41:24.997Z,4.19
2022-12-18T14:43:53.660Z,4.17
2022-12-18T14:46:37.348Z,4.18
2022-12-18T14:49:05.844Z,4.16
2022-12-18T14:51:35.984Z,4.16
2022-12-18T14:54:09.308Z,4.15
2022-12-18T14:56:43.458Z,4.15
2022-12-18T14:59:24.732Z,4.17
2022-12-18T15:01:54.854Z,4.18
2022-12-18T15:04:28.211Z,4.16
2022-12-18T15:07:24.636Z,4.18
2022-12-18T15:10:15.462Z,4.17
2022-12-18T15:12:50.672Z,4.13
2022-12-18T15:15:38.912Z,4.12
2022-12-18T15:18:32.839Z,4.12
2022-12-18T15:21:09.349Z,4.08
2022-12-18T15:23:45.288Z,4.11
2022-12-18T15:26:14.063Z,4.13
2022-12-18T15:28:48.659Z,4.13
2022-12-18T15:31:16.209Z,4.16
2022-12-18T15:34:01.798Z,4.19
2022-12-18T15:36:31.672Z,4.18
2022-12-18T15:39:05.072Z,4.20
2022-12-18T15:41:36.129Z,4.19
2022-12-18T15:44:04.519Z,4.20
2022-12-18T15:46:32.181Z,4.23
2022-12-18T15:49:02.328Z,4.26
2022-12-18T15:51:34.304Z,4.25
2022-12-18T15:54:05.244Z,4.22
2022-12-18T15:56:50.995Z,4.21
2022-12-18T15:59:20.703Z,4.22
2022-12-18T16:01:49.800Z,4.22
2022-12-18T16:04:21.732Z,4.19
2022-12-18T16:09:37.446Z,4.21
2022-12-18T16:12:05.187Z,4.20
2022-12-18T16:14:33.080Z,4.18
2022-12-18T16:17:03.020Z,4.18
2022-12-18T16:19:30.628Z,4.19
2022-12-18T16:21:59.486Z,4.19
2022-12-18T16:24:29.095Z,4.19
2022-12-18T16:27:00.300Z,4.19
2022-12-18T16:29:29.083Z,4.21
2022-12-18T16:31:57.413Z,4.19
2022-12-18T16:34:36.145Z,4.21
2022-12-18T16:37:06.493Z,4.21
2022-12-18T16:39:37.949Z,4.22
2022-12-18T16:42:17.949Z,4.20
2022-12-18T16:44:45.470Z,4.23
2022-12-18T16:47:15.186Z,4.22
2022-12-18T16:49:43.012Z,4.25
2022-12-18T16:52:09.787Z,4.27
2022-12-18T16:54:36.988Z,4.26
2022-12-18T16:57:05.601Z,4.26
2022-12-18T16:59:35.743Z,4.25
2022-12-18T17:02:12.091Z,4.26
2022-12-18T17:04:38.958Z,4.28
2022-12-18T17:07:05.730Z,4.26
2022-12-18T17:09:32.567Z,4.28
2022-12-18T17:12:03.945Z,4.27
2022-12-18T17:14:32.800Z,4.29
2022-12-18T17:19:50.400Z,4.27
2022-12-18T17:22:17.272Z,4.31
2022-12-18T17:24:44.114Z,4.31
2022-12-18T17:27:11.187Z,4.32
2022-12-18T17:29:41.268Z,4.30
2022-12-18T17:32:13.510Z,4.31
2022-12-18T17:34:40.933Z,4.32
2022-12-18T17:37:08.327Z,4.31
2022-12-18T17:39:35.103Z,4.31
2022-12-18T17:42:01.903Z,4.33
2022-12-18T17:44:28.811Z,4.33
2022-12-18T17:46:56.003Z,4.36
2022-12-18T17:49:22.851Z,4.37
2022-12-18T17:51:49.759Z,4.39
2022-12-18T17:54:16.653Z,4.39
2022-12-18T17:56:43.595Z,4.39
2022-12-18T17:59:10.878Z,4.40
2022-12-18T18:01:44.129Z,4.41
2022-12-18T18:04:12.341Z,4.42
2022-12-18T18:06:39.585Z,4.41
2022-12-18T18:09:11.176Z,4.39
2022-12-18T18:12:05.536Z,4.44
2022-12-18T18:14:33.150Z,4.44
2022-12-18T18:17:04.442Z,4.44
2022-12-18T18:19:33.252Z,4.46
2022-12-18T18:22:00.244Z,4.46
2022-12-18T18:24:27.049Z,4.47
2022-12-18T18:26:59.680Z,4.46
2022-12-18T18:29:27.920Z,4.48
2022-12-18T18:31:56.085Z,4.50
2022-12-18T18:34:31.250Z,4.52
2022-12-18T18:37:02.080Z,4.52
2022-12-18T18:39:29.499Z,4.53
2022-12-18T18:41:56.403Z,4.51
2022-12-18T18:44:25.656Z,4.53
2022-12-18T18:46:56.783Z,4.54
2022-12-18T18:49:27.193Z,4.54
2022-12-18T18:51:57.881Z,4.56
2022-12-18T18:54:25.892Z,4.56
2022-12-18T18:59:39.765Z,4.56
2022-12-18T19:02:09.311Z,4.59
2022-12-18T19:04:37.506Z,4.59
2022-12-18T19:07:10.987Z,4.60
2022-12-18T19:09:38.499Z,4.60
2022-12-18T19:12:23.806Z,4.59
2022-12-18T19:14:50.507Z,4.61
2022-12-18T19:17:17.180Z,4.64
2022-12-18T19:19:44.018Z,4.65
2022-12-18T19:22:11.514Z,4.64
2022-12-18T19:24:38.483Z,4.62
2022-12-18T19:27:05.216Z,4.63
2022-12-18T19:29:32.015Z,4.63
2022-12-18T19:31:58.898Z,4.63
2022-12-18T19:34:25.649Z,4.64
2022-12-18T19:36:57.943Z,4.65
2022-12-18T19:39:26.599Z,4.65
2022-12-18T19:41:53.356Z,4.67
2022-12-18T19:44:21.063Z,4.64
2022-12-18T19:46:51.594Z,4.66
2022-12-18T19:49:18.473Z,4.64
2022-12-18T19:51:46.478Z,4.67
2022-12-18T19:54:16.923Z,4.66
2022-12-18T19:56:45.082Z,4.67
2022-12-18T19:59:11.996Z,4.67
2022-12-18T20:01:38.773Z,4.67
2022-12-18T20:04:05.959Z,4.66
2022-12-18T20:06:45.287Z,4.68
2022-12-18T20:09:12.164Z,4.66
2022-12-18T20:11:41.496Z,4.69
2022-12-18T20:14:10.482Z,4.71
2022-12-18T20:16:37.471Z,4.71
2022-12-18T20:19:05.443Z,4.69
2022-12-18T20:21:32.248Z,4.70
2022-12-18T20:24:00.224Z,4.71
2022-12-18T20:26:26.930Z,4.71
2022-12-18T20:28:54.866Z,4.73
2022-12-18T20:31:22.232Z,4.72
2022-12-18T20:33:49.916Z,4.73
2022-12-18T20:36:21.448Z,4.73
2022-12-18T20:38:57.222Z,4.74
2022-12-18T20:41:26.287Z,4.74
2022-12-18T20:43:56.085Z,4.76
2022-12-18T20:46:22.962Z,4.76
2022-12-18T20:48:49.660Z,4.74
2022-12-18T20:51:19.355Z,4.78
2022-12-18T20:53:47.090Z,4.75
2022-12-18T20:56:18.903Z,4.75
2022-12-18T20:58:49.580Z,4.74
2022-12-18T21:01:19.611Z,4.77
2022-12-18T21:03:47.591Z,4.78
2022-12-18T21:06:16.606Z,4.78
2022-12-18T21:08:43.511Z,4.80
2022-12-18T21:11:40.941Z,4.80
2022-12-18T21:14:17.276Z,4.81
2022-12-18T21:16:44.843Z,4.82
2022-12-18T21:19:13.711Z,4.78
2022-12-18T21:21:40.717Z,4.82
2022-12-18T21:24:09.696Z,4.81
2022-12-18T21:26:41.873Z,4.84
2022-12-18T21:29:22.316Z,4.84
2022-12-18T21:31:49.791Z,4.85
2022-12-18T21:34:23.290Z,4.85
2022-12-18T21:36:50.032Z,4.86
2022-12-18T21:39:17.801Z,4.85
2022-12-18T21:42:05.443Z,4.85
2022-12-18T21:44:38.874Z,4.85
2022-12-18T21:47:21.951Z,4.79
2022-12-18T21:49:51.337Z,4.84
2022-12-18T21:52:18.253Z,4.87
2022-12-18T21:54:45.002Z,4.85
2022-12-18T21:57:13.925Z,4.88
2022-12-18T21:59:42.418Z,4.89
2022-12-18T22:02:21.084Z,4.90
2022-12-18T22:04:48.850Z,4.89
2022-12-18T22:07:16.653Z,4.91
2022-12-18T22:09:43.532Z,4.91
2022-12-18T22:12:13.225Z,4.91
2022-12-18T22:14:40.008Z,4.89
2022-12-18T22:17:06.692Z,4.94
2022-12-18T22:19:38.087Z,4.95
2022-12-18T22:22:09.623Z,4.93
2022-12-18T22:24:36.296Z,4.96
2022-12-18T22:27:02.993Z,4.98
2022-12-18T22:29:48.185Z,4.98
2022-12-18T22:32:29.441Z,4.98
2022-12-18T22:35:03.110Z,4.95
2022-12-18T22:37:32.907Z,4.97
2022-12-18T22:39:59.522Z,4.97
2022-12-18T22:42:30.839Z,4.94
2022-12-18T22:44:57.533Z,4.98
2022-12-18T22:47:29.217Z,4.97
2022-12-18T22:49:56.581Z,4.99
2022-12-18T22:52:24.795Z,5.00
2022-12-18T22:54:53.605Z,5.01
2022-12-18T22:57:21.732Z,4.99
2022-12-18T22:59:49.161Z,5.00
2022-12-18T23:02:16.611Z,5.01
2022-12-18T23:04:43.336Z,5.02
2022-12-18T23:07:09.997Z,5.02
2022-12-18T23:09:38.073Z,5.00
2022-12-18T23:12:05.107Z,5.00
2022-12-18T23:14:32.050Z,5.03
2022-12-18T23:16:58.865Z,5.03
2022-12-18T23:19:26.381Z,5.03
2022-12-18T23:21:53.009Z,5.00
2022-12-18T23:24:21.804Z,5.03
2022-12-18T23:26:48.446Z,5.05
2022-12-18T23:29:15.082Z,5.05
2022-12-18T23:31:41.745Z,5.05
2022-12-18T23:34:08.836Z,5.06
2022-12-18T23:36:46.218Z,5.05
2022-12-18T23:39:28.526Z,5.05
2022-12-18T23:42:00.416Z,5.04
2022-12-18T23:44:27.158Z,5.07
2022-12-18T23:46:54.027Z,5.05
2022-12-18T23:49:20.672Z,5.07
2022-12-18T23:51:47.319Z,5.08
2022-12-18T23:54:13.915Z,5.07
2022-12-18T23:56:40.479Z,5.09
2022-12-18T23:59:07.062Z,5.10
